Time;durP1;ratioP1;P1;durP2;ratioP2;P2;SDS_P1;SDS_P2;PMS_P1;PMS_P2;Temp;Humidity;BMP_temperature;BMP_pressure;BME280_temperature;BME280_humidity;BME280_pressure;Samples;Min_cycle;Max_cycle;Signal;HPM_P1;HPM_P2
2023/01/19 00:01:01;;;;;;;33.88;12.90;;;-2.90;98.60;;;;;;4986111;28;20050;-90
2023/01/19 00:03:30;;;;;;;35.10;13.20;;;-3.00;98.70;;;;;;5004945;28;20058;-91
2023/01/19 00:05:57;;;;;;;39.97;14.13;;;-3.00;99.20;;;;;;4987806;28;20080;-90
2023/01/19 00:08:24;;;;;;;40.40;12.75;;;-3.00;98.90;;;;;;4988841;28;20144;-90
2023/01/19 00:10:53;;;;;;;37.20;13.05;;;-3.00;99.10;;;;;;4990523;28;20058;-91
2023/01/19 00:13:21;;;;;;;45.72;13.50;;;-3.10;98.80;;;;;;5004727;28;20058;-91
2023/01/19 00:15:50;;;;;;;38.80;14.50;;;-3.10;99.20;;;;;;4989124;28;20115;-91
2023/01/19 00:18:18;;;;;;;40.47;13.77;;;-3.10;98.90;;;;;;4992024;28;20388;-91
2023/01/19 00:20:50;;;;;;;34.22;12.38;;;-3.10;98.80;;;;;;5009446;28;20058;-91
2023/01/19 00:23:22;;;;;;;31.25;12.95;;;-3.20;99.00;;;;;;4991139;28;20144;-90
2023/01/19 00:25:55;;;;;;;32.92;11.98;;;-3.30;98.80;;;;;;4990485;28;20133;-90
2023/01/19 00:28:22;;;;;;;30.38;12.45;;;-3.20;99.30;;;;;;4987978;28;20054;-90
2023/01/19 00:30:52;;;;;;;38.63;13.73;;;-3.20;99.50;;;;;;4986327;28;20069;-91
2023/01/19 00:33:20;;;;;;;33.28;13.18;;;-3.20;99.00;;;;;;4988802;28;20452;-91
2023/01/19 00:35:53;;;;;;;54.55;12.93;;;-3.20;99.60;;;;;;4987044;28;20176;-91
2023/01/19 00:38:21;;;;;;;34.03;12.35;;;-3.10;99.40;;;;;;5002576;28;20094;-90
2023/01/19 00:40:49;;;;;;;33.22;12.38;;;-3.10;99.20;;;;;;4988221;28;20058;-90
2023/01/19 00:43:18;;;;;;;34.25;12.40;;;-3.10;99.50;;;;;;4991470;28;20046;-89
2023/01/19 00:45:45;;;;;;;31.75;13.32;;;-3.00;99.20;;;;;;4993695;28;20045;-90
2023/01/19 00:48:12;;;;;;;36.05;11.73;;;-3.00;99.10;;;;;;5011025;28;20056;-90
2023/01/19 00:50:42;;;;;;;41.65;13.18;;;-3.10;98.70;;;;;;4996920;28;20060;-90
2023/01/19 00:53:09;;;;;;;28.95;12.77;;;-3.10;98.70;;;;;;4999933;28;20473;-90
2023/01/19 00:55:37;;;;;;;37.63;12.85;;;-3.10;98.90;;;;;;4998659;28;20061;-90
2023/01/19 00:58:06;;;;;;;34.53;12.88;;;-3.10;98.90;;;;;;4996350;28;20292;-90
2023/01/19 01:00:33;;;;;;;35.35;13.73;;;-3.10;98.80;;;;;;4987936;28;20064;-90
2023/01/19 01:03:01;;;;;;;34.67;13.55;;;-3.00;99.10;;;;;;4987594;28;20058;-90
2023/01/19 01:05:29;;;;;;;34.42;13.23;;;-2.90;98.70;;;;;;4985790;28;20076;-90
2023/01/19 01:08:00;;;;;;;36.80;12.20;;;-2.90;98.20;;;;;;4985983;28;20054;-90
2023/01/19 01:10:28;;;;;;;47.45;12.63;;;-2.90;98.70;;;;;;4972175;28;20046;-90
2023/01/19 01:12:57;;;;;;;31.13;13.70;;;-2.90;98.40;;;;;;4987016;28;20403;-90
2023/01/19 01:15:47;;;;;;;30.15;10.93;;;-2.90;98.40;;;;;;4990164;28;20085;-91
2023/01/19 01:18:15;;;;;;;29.30;10.88;;;-2.90;97.90;;;;;;5002653;28;20054;-91
2023/01/19 01:20:43;;;;;;;29.23;12.27;;;-2.90;98.20;;;;;;5003139;28;20045;-91
2023/01/19 01:23:13;;;;;;;36.42;13.05;;;-2.80;98.00;;;;;;4990178;28;20065;-90
2023/01/19 01:25:45;;;;;;;39.08;13.45;;;-2.80;98.30;;;;;;4970585;28;20046;-90
2023/01/19 01:28:13;;;;;;;37.80;13.68;;;-2.80;97.50;;;;;;4991390;28;20147;-91
2023/01/19 01:30:42;;;;;;;36.45;13.52;;;-2.80;97.40;;;;;;5003628;28;20123;-90
2023/01/19 01:33:12;;;;;;;30.00;11.48;;;-2.80;97.30;;;;;;4986652;28;20403;-90
2023/01/19 01:36:02;;;;;;;36.92;12.50;;;-2.80;97.30;;;;;;5003765;28;20796;-91
2023/01/19 01:38:29;;;;;;;43.03;13.32;;;-2.80;97.10;;;;;;4987906;28;20532;-91
2023/01/19 01:40:57;;;;;;;35.05;13.20;;;-2.80;97.20;;;;;;4984979;28;20144;-91
2023/01/19 01:43:46;;;;;;;42.42;14.00;;;-2.80;97.40;;;;;;4985905;28;20483;-90
2023/01/19 01:46:15;;;;;;;36.67;12.18;;;-2.80;97.00;;;;;;4985581;28;20046;-90
2023/01/19 01:48:59;;;;;;;29.15;12.15;;;-2.80;97.20;;;;;;4984532;28;20688;-90
2023/01/19 01:51:50;;;;;;;31.30;12.55;;;-2.90;97.10;;;;;;4984083;28;20465;-91
2023/01/19 01:54:21;;;;;;;34.47;12.35;;;-2.90;97.20;;;;;;4983482;28;20058;-90
2023/01/19 01:56:52;;;;;;;29.80;12.15;;;-3.00;96.90;;;;;;4984117;28;20132;-90
2023/01/19 01:59:40;;;;;;;27.02;11.80;;;-2.90;97.70;;;;;;4999811;28;20064;-90
2023/01/19 02:05:23;;;;;;;41.88;13.68;;;-2.80;96.90;;;;;;5001346;28;20394;-90
2023/01/19 02:13:47;;;;;;;27.65;10.90;;;-2.80;96.80;;;;;;5003697;28;20058;-90
2023/01/19 02:16:15;;;;;;;47.70;14.00;;;-2.80;96.80;;;;;;4985982;28;20056;-89
2023/01/19 02:18:44;;;;;;;26.88;12.25;;;-2.70;96.70;;;;;;4984736;28;20058;-90
2023/01/19 02:21:22;;;;;;;30.45;12.63;;;-2.70;96.50;;;;;;5002330;28;20054;-90
2023/01/19 02:23:59;;;;;;;38.53;11.90;;;-2.70;96.20;;;;;;4991249;28;20187;-91
2023/01/19 02:26:30;;;;;;;32.03;11.10;;;-2.70;95.90;;;;;;4993960;28;20072;-91
2023/01/19 02:29:27;;;;;;;38.10;11.75;;;-2.70;96.10;;;;;;5008161;28;20185;-91
2023/01/19 02:31:58;;;;;;;31.88;12.77;;;-2.50;95.90;;;;;;4973765;28;20141;-90
2023/01/19 02:34:27;;;;;;;37.20;12.77;;;-2.50;95.70;;;;;;4987200;28;20412;-91
2023/01/19 02:37:06;;;;;;;27.67;11.27;;;-2.40;95.60;;;;;;4992817;28;20066;-91
2023/01/19 02:39:58;;;;;;;39.38;12.25;;;-2.40;95.00;;;;;;5006264;28;20046;-90
2023/01/19 02:42:37;;;;;;;29.60;12.82;;;-2.30;95.30;;;;;;4995038;28;20053;-92
2023/01/19 02:45:08;;;;;;;32.10;13.00;;;-2.20;94.80;;;;;;5006638;28;20053;-92
2023/01/19 02:47:43;;;;;;;32.35;12.73;;;-2.20;94.30;;;;;;5009258;28;20092;-92
2023/01/19 02:50:45;;;;;;;29.63;11.35;;;-2.20;94.10;;;;;;4991179;28;20491;-91
2023/01/19 02:53:33;;;;;;;43.58;11.82;;;-2.20;94.10;;;;;;5009254;28;20383;-91
2023/01/19 02:56:15;;;;;;;31.70;11.25;;;-2.20;94.30;;;;;;5003421;28;20714;-91
2023/01/19 02:59:02;;;;;;;33.95;11.13;;;-2.10;93.90;;;;;;5001090;28;20061;-91
2023/01/19 03:01:41;;;;;;;25.33;10.52;;;-2.10;93.70;;;;;;5002343;28;20057;-91
2023/01/19 03:04:37;;;;;;;26.25;11.32;;;-2.10;93.30;;;;;;5005739;28;20060;-91
2023/01/19 03:07:38;;;;;;;28.10;11.48;;;-2.10;93.90;;;;;;5001924;28;20057;-91
2023/01/19 03:10:42;;;;;;;32.33;10.25;;;-2.10;93.70;;;;;;5001024;28;20558;-91
2023/01/19 03:13:30;;;;;;;35.97;12.52;;;-2.10;93.20;;;;;;5002936;28;20137;-92
2023/01/19 03:16:15;;;;;;;35.50;12.60;;;-2.10;93.50;;;;;;5007610;28;20066;-92
2023/01/19 03:19:03;;;;;;;32.58;11.18;;;-2.10;93.30;;;;;;4999802;28;20561;-92
2023/01/19 03:21:37;;;;;;;27.23;10.73;;;-2.10;93.00;;;;;;5014632;28;20060;-92
2023/01/19 03:24:10;;;;;;;30.65;11.52;;;-2.00;92.90;;;;;;4998949;28;20112;-92
2023/01/19 03:26:59;;;;;;;28.67;10.52;;;-2.10;92.80;;;;;;5020183;28;20054;-92
2023/01/19 03:29:33;;;;;;;25.48;10.32;;;-2.00;92.80;;;;;;5018363;28;20148;-92
2023/01/19 03:32:09;;;;;;;25.38;10.43;;;-2.00;92.20;;;;;;4999785;28;20486;-92
2023/01/19 03:34:46;;;;;;;35.95;11.90;;;-2.00;92.20;;;;;;5000272;28;20478;-92
2023/01/19 03:37:16;;;;;;;31.52;10.10;;;-1.90;92.10;;;;;;5012924;28;20060;-92
2023/01/19 03:39:46;;;;;;;27.08;10.40;;;-1.90;91.90;;;;;;4998400;28;20054;-91
2023/01/19 03:42:17;;;;;;;25.90;10.98;;;-1.90;91.90;;;;;;4993125;28;20578;-92
2023/01/19 03:44:49;;;;;;;38.70;11.60;;;-1.90;92.30;;;;;;4992148;28;20135;-92
2023/01/19 03:47:19;;;;;;;33.60;10.38;;;-2.00;92.20;;;;;;4990394;28;20054;-91
2023/01/19 03:49:49;;;;;;;25.33;10.50;;;-1.90;92.00;;;;;;4971240;28;20042;-90
2023/01/19 03:52:34;;;;;;;28.95;10.63;;;-1.90;91.50;;;;;;4993527;28;20044;-96
2023/01/19 03:55:19;;;;;;;24.38;9.52;;;-1.90;91.90;;;;;;5014677;28;20077;-96
2023/01/19 03:57:50;;;;;;;37.38;10.98;;;-1.90;91.90;;;;;;5024661;28;20057;-96
2023/01/19 04:00:20;;;;;;;29.75;10.57;;;-1.90;92.20;;;;;;5011762;28;20140;-95
2023/01/19 04:02:48;;;;;;;32.10;9.88;;;-1.90;92.10;;;;;;5009098;28;20057;-95
2023/01/19 04:05:18;;;;;;;23.85;9.50;;;-1.90;91.90;;;;;;5009356;28;20113;-96
2023/01/19 04:07:55;;;;;;;27.63;9.73;;;-1.90;91.70;;;;;;5008646;28;20557;-95
2023/01/19 04:10:25;;;;;;;30.88;9.15;;;-1.90;91.70;;;;;;4985196;28;20070;-95
2023/01/19 04:12:59;;;;;;;23.35;9.13;;;-1.90;92.00;;;;;;4986107;28;20478;-95
2023/01/19 04:15:39;;;;;;;22.38;9.57;;;-2.00;92.00;;;;;;4992000;28;20061;-96
2023/01/19 04:18:11;;;;;;;22.90;9.07;;;-1.90;92.10;;;;;;4997009;28;20042;-95
2023/01/19 04:20:48;;;;;;;22.60;10.10;;;-1.90;91.80;;;;;;4999572;28;20049;-95
2023/01/19 04:23:19;;;;;;;27.75;9.40;;;-1.90;92.40;;;;;;4996843;28;20337;-94
2023/01/19 04:25:49;;;;;;;26.58;9.65;;;-1.90;91.70;;;;;;4991136;28;20110;-95
2023/01/19 04:28:18;;;;;;;32.53;9.57;;;-1.90;91.80;;;;;;5010407;28;20054;-93
2023/01/19 04:30:51;;;;;;;25.75;10.05;;;-1.90;91.90;;;;;;5019790;28;20042;-95
2023/01/19 04:33:18;;;;;;;21.65;9.75;;;-1.80;91.50;;;;;;5001293;28;20053;-95
2023/01/19 04:35:51;;;;;;;22.52;8.73;;;-1.80;91.50;;;;;;5016663;28;20056;-94
2023/01/19 04:38:21;;;;;;;27.65;10.55;;;-1.70;91.50;;;;;;5046224;28;20053;-95
2023/01/19 04:40:49;;;;;;;19.30;9.00;;;-1.70;91.20;;;;;;5039863;28;20056;-94
2023/01/19 04:43:16;;;;;;;31.63;9.43;;;-1.70;91.20;;;;;;5014584;28;20065;-94
2023/01/19 04:45:46;;;;;;;27.15;9.40;;;-1.60;90.90;;;;;;5021530;28;20096;-95
2023/01/19 04:48:14;;;;;;;23.08;8.95;;;-1.60;90.50;;;;;;5006643;28;20056;-95
2023/01/19 04:50:47;;;;;;;25.08;8.63;;;-1.50;90.30;;;;;;5009433;28;20057;-94
2023/01/19 04:53:17;;;;;;;29.38;8.82;;;-1.50;90.10;;;;;;5026721;28;20046;-94
2023/01/19 04:55:45;;;;;;;24.50;8.60;;;-1.40;90.30;;;;;;5021489;28;20049;-95
2023/01/19 04:58:14;;;;;;;20.80;9.38;;;-1.40;89.50;;;;;;4999942;28;20065;-94
2023/01/19 05:00:42;;;;;;;20.38;8.80;;;-1.40;89.20;;;;;;4984254;28;20046;-95
2023/01/19 05:03:11;;;;;;;23.20;8.70;;;-1.30;89.20;;;;;;5015540;28;20149;-94
2023/01/19 05:05:39;;;;;;;17.17;8.82;;;-1.30;88.90;;;;;;4979257;28;20046;-95
2023/01/19 05:08:06;;;;;;;23.23;9.20;;;-1.30;89.30;;;;;;5019047;28;20045;-94
2023/01/19 05:10:33;;;;;;;22.42;8.88;;;-1.30;89.10;;;;;;4999346;28;20041;-94
2023/01/19 05:13:00;;;;;;;22.50;8.70;;;-1.20;89.40;;;;;;4999176;28;20422;-93
2023/01/19 05:15:28;;;;;;;24.25;9.75;;;-1.20;88.90;;;;;;4998229;28;20071;-94
2023/01/19 05:17:56;;;;;;;26.63;9.00;;;-1.20;89.20;;;;;;4997595;28;20056;-94
2023/01/19 05:20:24;;;;;;;24.30;9.07;;;-1.20;89.20;;;;;;4997921;28;20136;-94
2023/01/19 05:22:52;;;;;;;22.88;8.80;;;-1.20;89.20;;;;;;5000123;28;20156;-95
2023/01/19 05:25:23;;;;;;;26.08;9.07;;;-1.10;88.60;;;;;;5016033;28;20042;-94
2023/01/19 05:27:50;;;;;;;26.33;9.32;;;-1.10;88.70;;;;;;5007078;28;20041;-95
2023/01/19 05:30:18;;;;;;;21.92;8.90;;;-1.00;88.70;;;;;;5005314;28;20038;-94
2023/01/19 05:32:47;;;;;;;22.00;8.80;;;-1.00;88.40;;;;;;4997138;28;20049;-94
2023/01/19 05:35:15;;;;;;;23.05;8.82;;;-1.00;89.00;;;;;;4998477;28;20066;-93
2023/01/19 05:37:46;;;;;;;18.88;9.13;;;-1.00;88.60;;;;;;4994889;28;20072;-95
2023/01/19 05:40:13;;;;;;;30.08;8.95;;;-0.90;88.10;;;;;;4999694;28;20454;-94
2023/01/19 05:42:43;;;;;;;21.92;9.75;;;-0.90;88.20;;;;;;4984103;28;20132;-94
2023/01/19 05:45:11;;;;;;;22.27;9.45;;;-0.90;88.20;;;;;;4989539;28;20054;-94
2023/01/19 05:47:38;;;;;;;24.85;8.63;;;-0.90;88.00;;;;;;4993450;28;20123;-95
2023/01/19 05:50:07;;;;;;;23.77;9.35;;;-0.90;88.00;;;;;;4998468;28;20577;-93
2023/01/19 05:52:34;;;;;;;22.67;9.07;;;-0.90;88.10;;;;;;5006810;28;20453;-93
2023/01/19 05:55:05;;;;;;;23.50;7.82;;;-0.90;88.00;;;;;;4998690;28;20457;-94
2023/01/19 05:57:35;;;;;;;26.75;9.52;;;-0.80;88.10;;;;;;5016953;28;20050;-95
2023/01/19 06:00:08;;;;;;;21.33;8.15;;;-0.80;87.90;;;;;;4994090;28;20568;-94
2023/01/19 06:02:35;;;;;;;20.83;9.35;;;-0.80;88.10;;;;;;5015263;28;20096;-95
2023/01/19 06:05:08;;;;;;;19.63;8.40;;;-0.80;87.60;;;;;;5001597;28;20046;-94
2023/01/19 06:07:37;;;;;;;20.45;8.98;;;-0.80;87.80;;;;;;4992373;28;20049;-94
2023/01/19 06:10:07;;;;;;;23.38;9.07;;;-0.70;87.70;;;;;;5022595;28;20100;-96
2023/01/19 06:12:37;;;;;;;20.05;8.10;;;-0.70;87.40;;;;;;4999314;28;20486;-94
2023/01/19 06:15:10;;;;;;;18.77;9.07;;;-0.70;87.40;;;;;;5014006;28;20445;-94
2023/01/19 06:17:46;;;;;;;21.92;10.27;;;-0.70;87.20;;;;;;4994148;28;20056;-94
2023/01/19 06:20:15;;;;;;;24.17;8.95;;;-0.60;87.40;;;;;;4994982;28;20054;-93
2023/01/19 06:22:52;;;;;;;29.67;9.93;;;-0.60;87.30;;;;;;4994019;28;20072;-96
2023/01/19 06:25:24;;;;;;;25.15;8.75;;;-0.60;87.70;;;;;;4990735;28;20077;-94
2023/01/19 06:27:55;;;;;;;23.35;8.98;;;-0.60;87.40;;;;;;4998855;28;20050;-95
2023/01/19 06:30:39;;;;;;;23.73;9.23;;;-0.60;87.30;;;;;;5016880;28;20092;-95
2023/01/19 06:33:20;;;;;;;22.38;9.10;;;-0.60;87.60;;;;;;4986736;28;20483;-95
2023/01/19 06:35:50;;;;;;;24.63;8.57;;;-0.60;87.40;;;;;;4995571;28;20061;-94
2023/01/19 06:38:18;;;;;;;29.30;8.73;;;-0.60;87.00;;;;;;4991492;28;20057;-94
2023/01/19 06:40:52;;;;;;;17.42;7.75;;;-0.60;86.80;;;;;;4997689;28;20034;-93
2023/01/19 06:43:20;;;;;;;18.40;8.30;;;-0.60;87.30;;;;;;5004720;28;20835;-92
2023/01/19 06:45:47;;;;;;;18.40;7.55;;;-0.60;87.20;;;;;;5000186;28;20046;-93
2023/01/19 06:48:14;;;;;;;20.83;8.90;;;-0.50;87.00;;;;;;4987513;28;20053;-92
2023/01/19 06:50:44;;;;;;;21.88;8.07;;;-0.50;86.90;;;;;;4999926;28;20068;-93
2023/01/19 06:53:12;;;;;;;21.67;8.57;;;-0.50;86.90;;;;;;4988108;28;20076;-93
2023/01/19 06:55:38;;;;;;;22.13;9.20;;;-0.50;86.90;;;;;;4986615;28;20060;-93
2023/01/19 06:58:06;;;;;;;20.15;8.80;;;-0.50;86.90;;;;;;4989314;28;20537;-93
2023/01/19 07:00:33;;;;;;;17.55;8.30;;;-0.50;86.90;;;;;;4982601;28;20066;-92
2023/01/19 07:02:59;;;;;;;21.98;8.45;;;-0.50;86.90;;;;;;4986204;28;20068;-92
2023/01/19 07:05:27;;;;;;;20.02;8.85;;;-0.50;86.80;;;;;;4986607;28;20054;-92
2023/01/19 07:07:55;;;;;;;24.05;9.50;;;-0.50;87.30;;;;;;4987723;28;20053;-93
2023/01/19 07:10:23;;;;;;;23.25;9.00;;;-0.50;86.70;;;;;;4985698;28;20045;-93
2023/01/19 07:12:50;;;;;;;19.90;8.45;;;-0.40;86.80;;;;;;4987239;28;20439;-93
2023/01/19 07:15:18;;;;;;;22.77;8.40;;;-0.40;87.10;;;;;;4983955;28;20054;-93
2023/01/19 07:17:45;;;;;;;20.00;8.18;;;-0.40;87.20;;;;;;4990279;28;20054;-93
2023/01/19 07:20:13;;;;;;;20.63;8.68;;;-0.40;86.90;;;;;;4988663;28;20398;-92
2023/01/19 07:22:45;;;;;;;16.30;8.02;;;-0.40;86.80;;;;;;4989497;28;20047;-93
2023/01/19 07:25:13;;;;;;;20.02;8.05;;;-0.40;87.10;;;;;;5004319;28;20049;-93
2023/01/19 07:27:40;;;;;;;20.33;9.07;;;-0.30;86.90;;;;;;4990467;28;20042;-93
2023/01/19 07:30:08;;;;;;;21.95;8.75;;;-0.30;87.00;;;;;;4987175;28;20046;-93
2023/01/19 07:32:35;;;;;;;18.92;8.13;;;-0.30;87.20;;;;;;4988572;28;20661;-92
2023/01/19 07:35:02;;;;;;;23.05;8.27;;;-0.30;87.00;;;;;;4985096;28;20046;-92
2023/01/19 07:37:29;;;;;;;22.95;7.75;;;-0.30;87.60;;;;;;5002355;28;20050;-93
2023/01/19 07:39:56;;;;;;;18.92;8.75;;;-0.30;87.30;;;;;;4990240;28;20050;-92
2023/01/19 07:42:22;;;;;;;22.63;9.38;;;-0.30;87.70;;;;;;4991131;28;20053;-92
2023/01/19 07:44:49;;;;;;;20.40;9.18;;;-0.30;87.70;;;;;;4989592;28;20133;-91
2023/01/19 07:47:16;;;;;;;18.98;8.52;;;-0.30;87.30;;;;;;4990111;28;20521;-93
2023/01/19 07:49:43;;;;;;;25.10;8.02;;;-0.20;87.60;;;;;;4991479;28;20045;-92
2023/01/19 07:52:10;;;;;;;20.52;8.93;;;-0.20;87.40;;;;;;4994080;28;20058;-93
2023/01/19 07:54:37;;;;;;;16.40;7.70;;;-0.20;87.50;;;;;;5008830;28;20140;-92
2023/01/19 07:57:04;;;;;;;18.10;8.10;;;-0.20;87.60;;;;;;4990388;28;20053;-92
2023/01/19 07:59:31;;;;;;;25.05;9.13;;;-0.10;87.30;;;;;;5006434;28;20073;-93
2023/01/19 08:01:58;;;;;;;19.95;8.75;;;-0.10;87.50;;;;;;4989594;28;20056;-93
2023/01/19 08:04:26;;;;;;;21.98;8.40;;;-0.10;87.70;;;;;;5006669;28;20133;-92
2023/01/19 08:06:54;;;;;;;20.42;7.60;;;0.00;87.60;;;;;;4991771;28;20061;-93
2023/01/19 08:09:22;;;;;;;22.90;8.43;;;0.00;88.00;;;;;;4993185;28;20050;-93
2023/01/19 08:11:49;;;;;;;17.70;8.73;;;0.00;87.70;;;;;;4991389;28;20054;-93
2023/01/19 08:14:16;;;;;;;18.30;8.25;;;0.00;87.70;;;;;;4993036;28;20046;-93
2023/01/19 08:16:43;;;;;;;20.00;7.47;;;-0.10;87.30;;;;;;4994864;28;20050;-93
2023/01/19 08:19:10;;;;;;;21.48;8.52;;;-0.10;87.60;;;;;;5010306;28;20058;-93
2023/01/19 08:21:37;;;;;;;18.10;7.78;;;-0.10;87.70;;;;;;5012724;28;20057;-92
2023/01/19 08:24:05;;;;;;;22.60;8.30;;;-0.20;88.00;;;;;;5023688;28;20038;-91
2023/01/19 08:26:34;;;;;;;19.08;8.30;;;-0.10;88.50;;;;;;5013499;28;20479;-93
2023/01/19 08:29:04;;;;;;;19.20;8.25;;;-0.10;88.40;;;;;;5023102;28;20824;-91
2023/01/19 08:31:31;;;;;;;18.00;7.75;;;-0.10;88.20;;;;;;5012036;28;20046;-92
2023/01/19 08:33:58;;;;;;;16.35;6.72;;;0.00;88.50;;;;;;5025188;28;20037;-92
2023/01/19 08:36:25;;;;;;;16.70;7.35;;;0.00;88.10;;;;;;5022644;28;20057;-93
2023/01/19 08:38:52;;;;;;;16.42;7.72;;;0.00;88.10;;;;;;5019467;28;20459;-93
2023/01/19 08:41:19;;;;;;;22.42;8.52;;;0.00;88.10;;;;;;5003377;28;20061;-93
2023/01/19 08:43:46;;;;;;;18.67;7.68;;;0.00;87.80;;;;;;5011676;28;20103;-93
2023/01/19 08:46:16;;;;;;;17.48;7.35;;;0.10;88.10;;;;;;5006996;28;20168;-92
2023/01/19 08:48:53;;;;;;;20.88;7.13;;;0.10;87.60;;;;;;4995519;28;20471;-92
2023/01/19 08:51:20;;;;;;;15.95;7.80;;;0.20;87.40;;;;;;4998804;28;20061;-92
2023/01/19 08:53:47;;;;;;;21.60;8.07;;;0.20;87.50;;;;;;4994217;28;20157;-92
2023/01/19 08:56:14;;;;;;;15.73;7.53;;;0.30;87.40;;;;;;4998451;28;20103;-92
2023/01/19 08:58:43;;;;;;;26.67;8.68;;;0.40;87.30;;;;;;5016308;28;20049;-92
2023/01/19 09:01:15;;;;;;;17.45;7.60;;;0.50;87.30;;;;;;4989061;28;20407;-92
2023/01/19 09:03:42;;;;;;;19.63;8.57;;;0.60;86.30;;;;;;5008875;28;20140;-92
2023/01/19 09:06:11;;;;;;;21.85;8.32;;;0.60;85.90;;;;;;5004941;28;20061;-92
2023/01/19 09:08:39;;;;;;;21.05;8.23;;;0.70;85.60;;;;;;5006306;28;20055;-92
2023/01/19 09:11:12;;;;;;;23.75;8.00;;;0.70;86.00;;;;;;4990746;28;20046;-92
2023/01/19 09:13:40;;;;;;;22.75;8.15;;;0.80;86.30;;;;;;4977355;28;20058;-91
2023/01/19 09:16:08;;;;;;;22.85;8.57;;;0.90;85.40;;;;;;5006693;28;20074;-91
2023/01/19 09:18:35;;;;;;;20.55;8.55;;;1.00;84.90;;;;;;5007538;28;20116;-91
2023/01/19 09:21:03;;;;;;;18.15;7.78;;;1.10;85.00;;;;;;4988127;28;20064;-92
2023/01/19 09:23:30;;;;;;;20.67;7.82;;;1.20;85.20;;;;;;5004026;28;20134;-91
2023/01/19 09:25:59;;;;;;;23.17;8.40;;;1.30;83.40;;;;;;4989307;28;20053;-91
2023/01/19 09:28:28;;;;;;;19.60;8.68;;;1.20;82.50;;;;;;5007163;28;20056;-91
2023/01/19 09:30:55;;;;;;;26.10;8.07;;;1.10;84.00;;;;;;4998888;28;20058;-90
2023/01/19 09:33:23;;;;;;;19.92;7.80;;;1.10;83.50;;;;;;5005798;28;20149;-91
2023/01/19 09:35:50;;;;;;;17.60;6.78;;;1.10;83.90;;;;;;5005611;28;20064;-92
2023/01/19 09:38:18;;;;;;;22.15;7.95;;;1.10;83.60;;;;;;5012383;28;20072;-90
2023/01/19 09:40:53;;;;;;;14.93;7.60;;;1.10;83.60;;;;;;5008680;28;20053;-91
2023/01/19 09:43:38;;;;;;;18.83;7.40;;;0.90;83.40;;;;;;5004002;28;20124;-90
2023/01/19 09:46:17;;;;;;;16.40;7.60;;;0.80;84.90;;;;;;5003810;28;20437;-91
2023/01/19 09:48:51;;;;;;;19.55;8.00;;;0.90;85.50;;;;;;4996489;28;20128;-91
2023/01/19 09:51:32;;;;;;;17.40;7.25;;;1.00;85.30;;;;;;4998250;28;20544;-91
2023/01/19 09:54:15;;;;;;;30.38;8.85;;;1.10;85.40;;;;;;5006366;28;20053;-91
2023/01/19 09:56:44;;;;;;;17.33;7.80;;;1.40;83.90;;;;;;5004168;28;20217;-91
2023/01/19 09:59:23;;;;;;;17.75;8.05;;;1.50;83.40;;;;;;5007485;28;20050;-91
2023/01/19 10:02:12;;;;;;;20.40;8.55;;;1.60;83.30;;;;;;4983482;28;20061;-91
2023/01/19 10:04:55;;;;;;;16.48;7.85;;;1.80;81.60;;;;;;4981162;28;20221;-90
2023/01/19 10:07:28;;;;;;;16.23;7.85;;;1.80;80.80;;;;;;5007214;28;20053;-91
2023/01/19 10:10:20;;;;;;;20.30;8.55;;;1.80;81.10;;;;;;4995837;28;20061;-90
2023/01/19 10:12:52;;;;;;;22.75;7.57;;;1.70;80.70;;;;;;4996130;28;20058;-90
2023/01/19 10:15:19;;;;;;;17.45;7.22;;;1.70;82.60;;;;;;4990572;28;20049;-90
2023/01/19 10:17:48;;;;;;;16.25;8.20;;;1.70;80.90;;;;;;4996980;28;20072;-90
2023/01/19 10:20:28;;;;;;;17.08;7.38;;;1.60;81.70;;;;;;4992876;28;20108;-90
2023/01/19 10:22:57;;;;;;;15.20;7.13;;;1.50;81.60;;;;;;4996327;28;20088;-91
2023/01/19 10:25:26;;;;;;;17.77;8.00;;;1.40;84.10;;;;;;5003632;28;20046;-91
2023/01/19 10:27:53;;;;;;;21.08;8.60;;;1.70;85.00;;;;;;4989652;28;20486;-91
2023/01/19 10:30:27;;;;;;;17.00;8.20;;;2.30;80.80;;;;;;5002941;28;20086;-90
2023/01/19 10:32:54;;;;;;;16.88;7.93;;;2.30;79.10;;;;;;4981658;28;20054;-90
2023/01/19 10:35:23;;;;;;;20.05;8.43;;;2.30;80.70;;;;;;4999494;28;20046;-90
2023/01/19 10:37:57;;;;;;;15.98;7.85;;;2.70;80.10;;;;;;5006134;28;20065;-90
2023/01/19 10:40:38;;;;;;;17.80;8.55;;;3.10;78.20;;;;;;4990205;28;20053;-90
2023/01/19 10:43:34;;;;;;;16.67;8.10;;;3.00;76.20;;;;;;5006818;28;20137;-90
2023/01/19 10:46:56;;;;;;;20.25;7.57;;;2.80;78.00;;;;;;4983664;28;20117;-91
2023/01/19 10:49:30;;;;;;;18.52;7.53;;;2.80;77.30;;;;;;5002370;28;20072;-91
2023/01/19 10:51:58;;;;;;;22.50;8.38;;;2.90;78.50;;;;;;5018653;28;20063;-91
2023/01/19 10:54:28;;;;;;;20.60;7.85;;;3.10;77.80;;;;;;5004271;28;20144;-89
2023/01/19 10:57:08;;;;;;;18.98;7.78;;;3.30;76.90;;;;;;5004008;28;20046;-90
2023/01/19 10:59:49;;;;;;;19.85;8.27;;;3.30;76.40;;;;;;4983179;28;20115;-91
2023/01/19 11:02:21;;;;;;;14.73;7.22;;;3.20;76.30;;;;;;5011452;28;20050;-91
2023/01/19 11:04:51;;;;;;;30.63;7.90;;;3.10;76.20;;;;;;5011542;28;20034;-90
2023/01/19 11:07:23;;;;;;;20.38;8.07;;;3.10;76.70;;;;;;5012042;28;20110;-91
2023/01/19 11:10:10;;;;;;;20.65;7.82;;;2.90;76.10;;;;;;5009314;28;20169;-92
2023/01/19 11:12:42;;;;;;;25.05;8.02;;;2.70;78.10;;;;;;4993432;28;20141;-91
2023/01/19 11:15:43;;;;;;;18.23;7.78;;;2.70;77.50;;;;;;5003534;28;20451;-91
2023/01/19 11:18:35;;;;;;;21.83;8.23;;;2.70;77.60;;;;;;4995061;28;20057;-90
2023/01/19 11:21:10;;;;;;;17.80;6.95;;;2.70;78.10;;;;;;4986046;28;20141;-91
2023/01/19 11:23:43;;;;;;;14.77;7.47;;;2.70;78.30;;;;;;4981907;28;20076;-91
2023/01/19 11:26:15;;;;;;;15.10;7.35;;;2.90;78.20;;;;;;5002682;28;20148;-90
2023/01/19 11:28:46;;;;;;;15.82;7.70;;;2.90;77.40;;;;;;4999993;28;20049;-91
2023/01/19 11:31:13;;;;;;;20.27;8.13;;;2.90;77.70;;;;;;5001774;28;20052;-91
2023/01/19 11:33:44;;;;;;;17.88;7.70;;;3.00;76.80;;;;;;4981174;28;20506;-91
2023/01/19 11:36:20;;;;;;;17.40;7.85;;;3.00;77.20;;;;;;5004040;28;20057;-90
2023/01/19 11:38:49;;;;;;;19.08;7.90;;;3.00;76.70;;;;;;5004857;28;20329;-91
2023/01/19 11:41:25;;;;;;;15.30;7.22;;;3.00;76.40;;;;;;5012285;28;20144;-90
2023/01/19 11:43:55;;;;;;;16.73;7.65;;;2.80;77.50;;;;;;5009237;28;20058;-91
2023/01/19 11:46:25;;;;;;;13.18;6.05;;;2.70;77.90;;;;;;4991143;28;20073;-91
2023/01/19 11:49:01;;;;;;;17.77;7.07;;;2.80;79.90;;;;;;4991534;28;20336;-91
2023/01/19 11:51:36;;;;;;;16.73;7.32;;;3.60;79.70;;;;;;4988396;28;20386;-91
2023/01/19 11:54:17;;;;;;;18.52;7.95;;;4.20;74.00;;;;;;4999490;28;20345;-90
2023/01/19 11:56:47;;;;;;;20.15;7.90;;;4.30;73.30;;;;;;4995359;28;20046;-90
2023/01/19 11:59:14;;;;;;;16.00;7.00;;;4.00;74.40;;;;;;4992447;28;20061;-90
2023/01/19 12:01:50;;;;;;;19.13;8.05;;;4.00;75.30;;;;;;5002129;28;20145;-91
2023/01/19 12:04:26;;;;;;;16.55;7.28;;;4.30;72.90;;;;;;5013303;28;20445;-87
2023/01/19 12:06:55;;;;;;;18.73;8.05;;;4.20;73.70;;;;;;5003438;28;20462;-87
2023/01/19 12:09:35;;;;;;;15.68;7.38;;;4.20;75.80;;;;;;5013866;28;20060;-87
2023/01/19 12:12:24;;;;;;;14.98;7.13;;;4.50;73.00;;;;;;4986404;28;20061;-87
2023/01/19 12:14:54;;;;;;;19.50;7.53;;;4.70;73.90;;;;;;5001735;28;20050;-87
2023/01/19 12:17:27;;;;;;;16.42;7.00;;;5.00;71.50;;;;;;5007297;28;20057;-87
2023/01/19 12:20:25;;;;;;;15.20;7.40;;;5.10;71.50;;;;;;5007799;28;20413;-87
2023/01/19 12:23:24;;;;;;;16.80;7.53;;;5.00;70.70;;;;;;4983951;28;20709;-87
2023/01/19 12:26:09;;;;;;;20.67;7.13;;;4.80;69.80;;;;;;4962672;28;20053;-87
2023/01/19 12:28:41;;;;;;;16.17;7.65;;;4.40;73.10;;;;;;4989333;28;20042;-91
2023/01/19 12:31:09;;;;;;;13.35;6.88;;;4.30;71.40;;;;;;5004499;28;20054;-91
2023/01/19 12:33:38;;;;;;;21.27;7.97;;;4.00;72.20;;;;;;5004418;28;20057;-89
2023/01/19 12:36:08;;;;;;;15.25;7.65;;;3.60;73.50;;;;;;4997825;28;20409;-88
2023/01/19 12:39:03;;;;;;;16.65;7.25;;;3.50;74.20;;;;;;4994817;28;20058;-88
2023/01/19 12:41:34;;;;;;;17.20;7.30;;;3.20;74.10;;;;;;4982883;28;20065;-88
2023/01/19 12:46:46;;;;;;;226.23;28.10;;;2.80;75.80;;;;;;5001735;28;20236;-88
2023/01/19 12:49:22;;;;;;;22.60;8.48;;;2.80;77.30;;;;;;4982642;28;20046;-88
2023/01/19 12:51:52;;;;;;;16.52;7.82;;;2.70;77.10;;;;;;4996197;28;20566;-88
2023/01/19 12:54:32;;;;;;;16.48;7.35;;;2.60;77.60;;;;;;4997716;28;20125;-88
2023/01/19 12:57:05;;;;;;;19.20;7.85;;;2.60;77.90;;;;;;4996517;28;20148;-88
2023/01/19 12:59:35;;;;;;;20.38;7.70;;;2.60;78.10;;;;;;4992467;28;20740;-88
2023/01/19 13:02:20;;;;;;;16.85;7.65;;;2.60;78.50;;;;;;4984100;28;20049;-87
2023/01/19 13:05:05;;;;;;;14.63;7.88;;;2.60;78.80;;;;;;5005175;28;20129;-86
2023/01/19 13:08:00;;;;;;;21.17;7.60;;;2.60;79.90;;;;;;4984189;28;20049;-88
2023/01/19 13:10:52;;;;;;;19.20;6.77;;;2.60;80.20;;;;;;4985964;28;20046;-87
2023/01/19 13:13:21;;;;;;;14.60;7.60;;;2.70;79.50;;;;;;4991853;28;20050;-87
2023/01/19 13:15:48;;;;;;;22.00;7.00;;;2.80;79.70;;;;;;4988356;28;20056;-87
2023/01/19 13:18:28;;;;;;;26.85;8.05;;;3.10;80.80;;;;;;5002749;28;20998;-87